Abdon Batista, Brazil
Current Conditions -  °F | °C
As of 10:00 PM on Friday 21 Nov 2014 (Local Time) from SBPF Reporting Station
Broken Clouds Broken Clouds  
Wind Chill: 75°   Ceiling: 7000
Heat Index: 75°   Visibility: 6mi
Dew Point: 66°   Wind: 6mph
Humidity: 73%   Direction: 20°NNE
Pressure: 29.85"   Gusts: NA
Location:  27.61°S, 51.02°W
Report Text: SBPF 220000Z 02005KT 9999 FEW045 BKN070 24/19 Q1011
Loading
Personal Weather Stations






























Interactive Weather Map New forecast layout! Learn more

10-Day Weather Forecast

Advertisements
Track Severe Weather on mobile